createdAt,value
2016-07-16T00:00:33.166Z,0
2016-07-16T00:01:33.086Z,0
2016-07-16T00:02:33.543Z,0
2016-07-16T00:03:33.060Z,0
2016-07-16T00:04:33.066Z,0
2016-07-16T00:05:33.496Z,0
2016-07-16T00:06:33.123Z,0
2016-07-16T00:07:33.306Z,0
2016-07-16T00:08:33.315Z,0
2016-07-16T00:09:33.259Z,0
2016-07-16T00:10:33.281Z,0
2016-07-16T00:11:33.247Z,0
2016-07-16T00:12:33.220Z,0
2016-07-16T00:13:33.070Z,0
2016-07-16T00:14:33.129Z,0
2016-07-16T00:15:33.225Z,0
2016-07-16T00:16:33.245Z,0
2016-07-16T00:17:33.238Z,0
2016-07-16T00:18:33.256Z,0
2016-07-16T00:19:33.233Z,0
2016-07-16T00:20:33.150Z,0
2016-07-16T00:21:33.214Z,0
2016-07-16T00:22:33.064Z,0
2016-07-16T00:23:33.112Z,0
2016-07-16T00:24:33.154Z,0
2016-07-16T00:25:33.186Z,0
2016-07-16T00:26:34.473Z,0
2016-07-16T00:27:33.485Z,0
2016-07-16T00:28:33.043Z,0
2016-07-16T00:29:33.064Z,0
2016-07-16T00:30:33.038Z,0
2016-07-16T00:31:33.077Z,0
2016-07-16T00:32:33.454Z,0
2016-07-16T00:33:33.170Z,0
2016-07-16T00:34:33.183Z,0
2016-07-16T00:35:33.354Z,0
2016-07-16T00:36:33.185Z,0
2016-07-16T00:37:33.173Z,0
2016-07-16T00:38:33.174Z,0
2016-07-16T00:39:33.305Z,0
2016-07-16T00:40:33.329Z,0
2016-07-16T00:41:33.195Z,0
2016-07-16T00:42:33.094Z,0
2016-07-16T00:43:34.050Z,0
2016-07-16T00:44:33.125Z,0
2016-07-16T00:45:33.293Z,0
2016-07-16T00:46:33.653Z,0
2016-07-16T00:47:33.203Z,0
2016-07-16T00:48:33.096Z,0
2016-07-16T00:49:33.183Z,0
2016-07-16T00:50:33.456Z,0
2016-07-16T00:51:33.096Z,0
2016-07-16T00:52:33.766Z,0
2016-07-16T00:53:33.098Z,0
2016-07-16T00:54:33.207Z,0
2016-07-16T00:55:33.543Z,0
2016-07-16T00:56:33.259Z,0
2016-07-16T00:57:33.052Z,0
2016-07-16T00:58:33.127Z,0
2016-07-16T00:59:33.216Z,0
2016-07-16T01:00:33.126Z,0
2016-07-16T01:01:34.196Z,0
2016-07-16T01:02:33.535Z,0
2016-07-16T01:03:33.171Z,0
2016-07-16T01:04:33.310Z,0
2016-07-16T01:05:33.673Z,0
2016-07-16T01:06:33.495Z,0
2016-07-16T01:07:33.110Z,0
2016-07-16T01:08:33.248Z,0
2016-07-16T01:09:33.196Z,0
2016-07-16T01:10:33.113Z,0
2016-07-16T01:11:33.089Z,0
2016-07-16T01:12:33.150Z,0
2016-07-16T01:13:33.128Z,0
2016-07-16T01:14:33.127Z,0
2016-07-16T01:15:33.117Z,0
2016-07-16T01:16:33.098Z,0
2016-07-16T01:17:33.130Z,0
2016-07-16T01:18:33.115Z,0
2016-07-16T01:19:33.099Z,0
2016-07-16T01:20:33.218Z,0
2016-07-16T01:21:33.147Z,0
2016-07-16T01:22:33.156Z,0
2016-07-16T01:23:33.133Z,0
2016-07-16T01:24:33.168Z,0
2016-07-16T01:25:33.130Z,0
2016-07-16T01:26:33.210Z,0
2016-07-16T01:27:33.142Z,0
2016-07-16T01:28:33.155Z,0
2016-07-16T01:29:33.131Z,0
2016-07-16T01:30:33.122Z,0
2016-07-16T01:31:33.144Z,0
2016-07-16T01:32:33.159Z,0
2016-07-16T01:33:33.163Z,0
2016-07-16T01:34:33.164Z,0
2016-07-16T01:35:33.184Z,0
2016-07-16T01:36:33.129Z,0
2016-07-16T01:37:33.190Z,0
2016-07-16T01:38:33.195Z,0
2016-07-16T01:39:33.142Z,0
2016-07-16T01:40:33.250Z,0
2016-07-16T01:41:33.217Z,0
2016-07-16T01:42:33.133Z,0
2016-07-16T01:43:33.190Z,0
2016-07-16T01:44:33.159Z,0
2016-07-16T01:45:33.223Z,0
2016-07-16T01:46:33.159Z,0
2016-07-16T01:47:33.147Z,0
2016-07-16T01:48:33.863Z,0
2016-07-16T01:49:33.160Z,0
2016-07-16T01:50:33.167Z,0
2016-07-16T01:51:33.173Z,0
2016-07-16T01:52:33.157Z,0
2016-07-16T01:53:33.148Z,0
2016-07-16T01:54:33.152Z,0
2016-07-16T01:55:33.128Z,0
2016-07-16T01:56:33.152Z,0
2016-07-16T01:57:33.129Z,0
2016-07-16T01:58:33.146Z,0
2016-07-16T01:59:33.157Z,0
2016-07-16T02:00:33.148Z,0
2016-07-16T02:01:33.728Z,0
2016-07-16T02:02:33.163Z,0
2016-07-16T02:03:33.199Z,0
2016-07-16T02:04:33.188Z,0
2016-07-16T02:05:33.154Z,0
2016-07-16T02:06:33.175Z,0
2016-07-16T02:07:33.154Z,0
2016-07-16T02:08:33.192Z,0
2016-07-16T02:09:33.167Z,0
2016-07-16T02:10:33.189Z,0
2016-07-16T02:11:33.164Z,0
2016-07-16T02:12:33.199Z,0
2016-07-16T02:13:33.196Z,0
2016-07-16T02:14:33.147Z,0
2016-07-16T02:15:33.162Z,0
2016-07-16T02:16:33.150Z,0
2016-07-16T02:17:33.191Z,0
2016-07-16T02:18:33.192Z,0
2016-07-16T02:19:33.188Z,0
2016-07-16T02:20:33.179Z,0
2016-07-16T02:21:33.790Z,0
2016-07-16T02:22:33.208Z,0
2016-07-16T02:23:33.191Z,0
2016-07-16T02:24:33.232Z,0
2016-07-16T02:25:33.229Z,0
2016-07-16T02:26:33.282Z,0
2016-07-16T02:27:33.315Z,0
2016-07-16T02:28:33.221Z,0
2016-07-16T02:29:33.183Z,0
2016-07-16T02:30:33.197Z,0
2016-07-16T02:31:33.312Z,0
2016-07-16T02:32:33.171Z,0
2016-07-16T02:33:33.177Z,0
2016-07-16T02:34:33.194Z,0
2016-07-16T02:35:33.164Z,0
2016-07-16T02:36:33.165Z,0
2016-07-16T02:37:33.192Z,0
2016-07-16T02:38:33.195Z,0
2016-07-16T02:39:33.170Z,0
2016-07-16T02:40:33.199Z,0
2016-07-16T02:41:33.191Z,0
2016-07-16T02:42:33.185Z,0
2016-07-16T02:43:33.167Z,0
2016-07-16T02:44:33.190Z,0
2016-07-16T02:45:33.163Z,0
2016-07-16T02:46:33.181Z,0
2016-07-16T02:47:33.213Z,0
2016-07-16T02:48:33.196Z,0
2016-07-16T02:49:33.203Z,0
2016-07-16T02:50:33.225Z,0
2016-07-16T02:51:33.193Z,0
2016-07-16T02:52:33.225Z,0
2016-07-16T02:53:33.198Z,0
2016-07-16T02:54:33.192Z,0
2016-07-16T02:55:33.199Z,0
2016-07-16T02:56:33.175Z,0
2016-07-16T02:57:33.212Z,0
2016-07-16T02:58:33.195Z,0
2016-07-16T02:59:33.194Z,0
2016-07-16T03:00:33.205Z,0
2016-07-16T03:01:33.194Z,0
2016-07-16T03:02:33.214Z,0
2016-07-16T03:03:33.199Z,0
2016-07-16T03:04:33.195Z,0
2016-07-16T03:05:33.235Z,0
2016-07-16T03:06:33.230Z,0
2016-07-16T03:07:33.192Z,0
2016-07-16T03:08:33.202Z,0
2016-07-16T03:09:33.225Z,0
2016-07-16T03:10:33.224Z,0
2016-07-16T03:11:33.215Z,0
2016-07-16T03:12:33.204Z,0
2016-07-16T03:13:33.193Z,0
2016-07-16T03:14:33.206Z,0
2016-07-16T03:15:33.213Z,0
2016-07-16T03:16:33.186Z,0
2016-07-16T03:17:33.208Z,0
2016-07-16T03:18:33.223Z,0
2016-07-16T03:19:33.218Z,0
2016-07-16T03:20:33.203Z,0
2016-07-16T03:21:33.201Z,0
2016-07-16T03:22:33.236Z,0
2016-07-16T03:23:33.216Z,0
2016-07-16T03:24:33.205Z,0
2016-07-16T03:25:33.281Z,0
2016-07-16T03:26:33.865Z,0
2016-07-16T03:27:33.324Z,0
2016-07-16T03:28:33.283Z,0
2016-07-16T03:29:33.255Z,0
2016-07-16T03:30:33.263Z,0
2016-07-16T03:31:33.271Z,0
2016-07-16T03:32:33.276Z,5
2016-07-16T03:33:33.255Z,5
2016-07-16T03:34:33.249Z,5
2016-07-16T03:35:33.226Z,5
2016-07-16T03:36:33.247Z,5
2016-07-16T03:37:33.313Z,5
2016-07-16T03:38:33.261Z,5
2016-07-16T03:39:33.270Z,10
2016-07-16T03:40:33.275Z,10
2016-07-16T03:41:33.281Z,10
2016-07-16T03:42:33.957Z,10
2016-07-16T03:43:33.249Z,10
2016-07-16T03:44:33.263Z,10
2016-07-16T03:45:33.253Z,15
2016-07-16T03:46:33.236Z,15
2016-07-16T03:47:33.243Z,15
2016-07-16T03:48:33.254Z,15
2016-07-16T03:49:33.218Z,15
2016-07-16T03:50:33.201Z,15
2016-07-16T03:51:33.213Z,15
2016-07-16T03:52:33.230Z,20
2016-07-16T03:53:33.279Z,20
2016-07-16T03:54:33.226Z,20
2016-07-16T03:55:33.257Z,25
2016-07-16T03:56:33.256Z,25
2016-07-16T03:57:33.247Z,25
2016-07-16T03:58:33.294Z,25
2016-07-16T03:59:33.238Z,30
2016-07-16T04:00:33.244Z,30
2016-07-16T04:01:33.236Z,30
2016-07-16T04:02:33.215Z,35
2016-07-16T04:03:33.258Z,35
2016-07-16T04:04:33.259Z,40
2016-07-16T04:05:33.255Z,40
2016-07-16T04:06:33.286Z,40
2016-07-16T04:07:33.238Z,40
2016-07-16T04:08:34.000Z,40
2016-07-16T04:09:33.225Z,35
2016-07-16T04:10:33.233Z,40
2016-07-16T04:11:33.262Z,35
2016-07-16T04:12:33.257Z,35
2016-07-16T04:13:33.286Z,35
2016-07-16T04:14:33.260Z,30
2016-07-16T04:15:33.288Z,35
2016-07-16T04:16:33.288Z,30
2016-07-16T04:17:33.276Z,30
2016-07-16T04:18:33.261Z,30
2016-07-16T04:19:33.253Z,30
2016-07-16T04:20:33.316Z,30
2016-07-16T04:21:33.288Z,25
2016-07-16T04:22:33.285Z,25
2016-07-16T04:23:33.345Z,30
2016-07-16T04:24:33.267Z,30
2016-07-16T04:25:33.284Z,30
2016-07-16T04:26:33.281Z,30
2016-07-16T04:27:33.281Z,30
2016-07-16T04:28:33.257Z,30
2016-07-16T04:29:33.303Z,30
2016-07-16T04:30:33.338Z,30
2016-07-16T04:31:33.256Z,30
2016-07-16T04:32:33.284Z,30
2016-07-16T04:33:33.288Z,35
2016-07-16T04:34:33.289Z,35
2016-07-16T04:35:33.257Z,35
2016-07-16T04:36:33.256Z,35
2016-07-16T04:37:33.289Z,30
2016-07-16T04:38:33.309Z,30
2016-07-16T04:39:33.318Z,30
2016-07-16T04:40:33.314Z,30
2016-07-16T04:41:33.285Z,30
2016-07-16T04:42:33.318Z,30
2016-07-16T04:43:33.348Z,30
2016-07-16T04:44:33.368Z,30
2016-07-16T04:45:33.343Z,30
2016-07-16T04:46:33.348Z,30
2016-07-16T04:47:33.310Z,30
2016-07-16T04:48:33.268Z,35
2016-07-16T04:49:33.307Z,35
2016-07-16T04:50:33.347Z,35
2016-07-16T04:51:33.305Z,35
2016-07-16T04:52:33.280Z,35
2016-07-16T04:53:33.289Z,35
2016-07-16T04:54:33.309Z,35
2016-07-16T04:55:33.309Z,35
2016-07-16T04:56:33.371Z,35
2016-07-16T04:57:33.320Z,40
2016-07-16T04:58:33.301Z,45
2016-07-16T04:59:33.289Z,50
2016-07-16T05:00:33.281Z,50
2016-07-16T05:01:33.290Z,50
2016-07-16T05:02:33.292Z,50
2016-07-16T05:03:33.332Z,50
2016-07-16T05:04:33.300Z,55
2016-07-16T05:05:33.289Z,60
2016-07-16T05:06:33.320Z,65
2016-07-16T05:07:33.334Z,70
2016-07-16T05:08:33.302Z,75
2016-07-16T05:09:33.310Z,85
2016-07-16T05:10:33.362Z,90
2016-07-16T05:11:33.341Z,105
2016-07-16T05:12:33.321Z,120
2016-07-16T05:13:33.320Z,135
2016-07-16T05:14:33.355Z,140
2016-07-16T05:15:33.351Z,140
2016-07-16T05:16:33.319Z,135
2016-07-16T05:17:33.373Z,140
2016-07-16T05:18:33.353Z,140
2016-07-16T05:19:33.375Z,140
2016-07-16T05:20:33.414Z,140
2016-07-16T05:21:33.341Z,145
2016-07-16T05:22:33.348Z,150
2016-07-16T05:23:33.415Z,155
2016-07-16T05:24:33.361Z,160
2016-07-16T05:25:33.327Z,160
2016-07-16T05:26:33.354Z,155
2016-07-16T05:27:33.317Z,150
2016-07-16T05:28:33.343Z,150
2016-07-16T05:29:33.351Z,155
2016-07-16T05:30:33.320Z,155
2016-07-16T05:31:33.325Z,160
2016-07-16T05:32:33.312Z,155
2016-07-16T05:33:33.285Z,150
2016-07-16T05:34:33.296Z,140
2016-07-16T05:35:33.290Z,135
2016-07-16T05:36:33.298Z,135
2016-07-16T05:37:33.310Z,130
2016-07-16T05:38:33.335Z,125
2016-07-16T05:39:33.352Z,120
2016-07-16T05:40:33.422Z,110
2016-07-16T05:41:33.368Z,100
2016-07-16T05:42:33.353Z,95
2016-07-16T05:43:33.353Z,95
2016-07-16T05:44:33.352Z,95
2016-07-16T05:45:33.388Z,95
2016-07-16T05:46:33.381Z,90
2016-07-16T05:47:33.416Z,95
2016-07-16T05:48:33.351Z,105
2016-07-16T05:49:33.352Z,110
2016-07-16T05:50:33.384Z,105
2016-07-16T05:51:33.364Z,100
2016-07-16T05:52:33.362Z,95
2016-07-16T05:53:33.381Z,95
2016-07-16T05:54:33.415Z,95
2016-07-16T05:55:33.342Z,95
2016-07-16T05:56:33.918Z,100
2016-07-16T05:57:33.347Z,100
2016-07-16T05:58:33.380Z,105
2016-07-16T05:59:33.369Z,110
2016-07-16T06:00:33.340Z,110
2016-07-16T06:01:33.384Z,115
2016-07-16T06:02:33.331Z,115
2016-07-16T06:03:33.366Z,110
2016-07-16T06:04:33.338Z,105
2016-07-16T06:05:33.405Z,100
2016-07-16T06:06:33.384Z,105
2016-07-16T06:07:33.419Z,110
2016-07-16T06:08:33.412Z,125
2016-07-16T06:09:33.446Z,135
2016-07-16T06:10:33.384Z,145
2016-07-16T06:11:33.359Z,160
2016-07-16T06:12:33.413Z,160
2016-07-16T06:13:33.924Z,165
2016-07-16T06:14:33.413Z,175
2016-07-16T06:15:33.371Z,180
2016-07-16T06:16:33.415Z,185
2016-07-16T06:17:33.427Z,185
2016-07-16T06:18:33.405Z,185
2016-07-16T06:19:33.367Z,190
2016-07-16T06:20:33.372Z,195
2016-07-16T06:21:33.383Z,200
2016-07-16T06:22:33.373Z,205
2016-07-16T06:23:33.377Z,215
2016-07-16T06:24:33.385Z,225
2016-07-16T06:25:33.337Z,230
2016-07-16T06:26:33.354Z,230
2016-07-16T06:27:33.391Z,235
2016-07-16T06:28:33.414Z,250
2016-07-16T06:29:33.391Z,265
2016-07-16T06:30:33.385Z,280
2016-07-16T06:31:33.461Z,290
2016-07-16T06:32:33.395Z,310
2016-07-16T06:33:33.452Z,325
2016-07-16T06:34:33.386Z,320
2016-07-16T06:35:33.425Z,300
2016-07-16T06:36:33.396Z,260
2016-07-16T06:37:33.419Z,225
2016-07-16T06:38:33.606Z,225
2016-07-16T06:39:33.416Z,225
2016-07-16T06:40:33.502Z,220
2016-07-16T06:41:33.427Z,210
2016-07-16T06:42:33.417Z,195
2016-07-16T06:43:33.436Z,190
2016-07-16T06:44:33.412Z,175
2016-07-16T06:45:33.387Z,155
2016-07-16T06:46:33.403Z,135
2016-07-16T06:47:33.448Z,120
2016-07-16T06:48:33.394Z,125
2016-07-16T06:49:33.431Z,130
2016-07-16T06:50:33.452Z,130
2016-07-16T06:51:33.420Z,120
2016-07-16T06:52:33.436Z,125
2016-07-16T06:53:33.444Z,140
2016-07-16T06:54:33.384Z,155
2016-07-16T06:55:33.661Z,170
2016-07-16T06:56:33.666Z,180
2016-07-16T06:57:33.422Z,185
2016-07-16T06:58:33.419Z,195
2016-07-16T06:59:33.421Z,190
2016-07-16T07:00:33.424Z,185
2016-07-16T07:01:33.435Z,190
2016-07-16T07:02:33.407Z,195
2016-07-16T07:03:33.429Z,195
2016-07-16T07:04:33.477Z,195
2016-07-16T07:05:33.684Z,195
2016-07-16T07:06:33.813Z,190
2016-07-16T07:07:33.459Z,195
2016-07-16T07:08:33.484Z,195
2016-07-16T07:09:33.453Z,195
2016-07-16T07:10:33.426Z,195
2016-07-16T07:11:33.440Z,195
2016-07-16T07:12:33.448Z,195
2016-07-16T07:13:33.487Z,185
2016-07-16T07:14:33.448Z,180
2016-07-16T07:15:33.472Z,175
2016-07-16T07:16:33.495Z,185
2016-07-16T07:17:33.475Z,200
2016-07-16T07:18:33.489Z,190
2016-07-16T07:19:33.485Z,175
2016-07-16T07:20:33.425Z,165
2016-07-16T07:21:34.225Z,160
2016-07-16T07:22:33.443Z,150
2016-07-16T07:23:33.764Z,150
2016-07-16T07:24:33.772Z,150
2016-07-16T07:25:34.077Z,150
2016-07-16T07:26:33.480Z,150
2016-07-16T07:27:33.487Z,155
2016-07-16T07:28:33.449Z,160
2016-07-16T07:29:33.448Z,165
2016-07-16T07:30:33.479Z,165
2016-07-16T07:31:33.450Z,170
2016-07-16T07:32:33.899Z,160
2016-07-16T07:33:33.480Z,150
2016-07-16T07:34:33.608Z,155
2016-07-16T07:35:33.512Z,160
2016-07-16T07:36:33.466Z,165
2016-07-16T07:37:33.697Z,175
2016-07-16T07:38:33.461Z,175
2016-07-16T07:39:33.465Z,170
2016-07-16T07:40:33.481Z,170
2016-07-16T07:41:33.509Z,170
2016-07-16T07:42:33.510Z,170
2016-07-16T07:43:33.515Z,175
2016-07-16T07:44:33.487Z,190
2016-07-16T07:45:33.597Z,190
2016-07-16T07:46:33.518Z,195
2016-07-16T07:47:33.489Z,195
2016-07-16T07:48:33.496Z,185
2016-07-16T07:49:33.513Z,175
2016-07-16T07:50:33.521Z,180
2016-07-16T07:51:33.664Z,195
2016-07-16T07:52:33.669Z,190
2016-07-16T07:53:33.615Z,195
2016-07-16T07:54:33.798Z,190
2016-07-16T07:55:33.727Z,190
2016-07-16T07:56:33.579Z,200
2016-07-16T07:57:33.464Z,205
2016-07-16T07:58:34.197Z,210
2016-07-16T07:59:33.658Z,235
2016-07-16T08:00:33.600Z,235
2016-07-16T08:01:34.108Z,240
2016-07-16T08:02:33.832Z,235
2016-07-16T08:03:33.507Z,230
2016-07-16T08:04:33.950Z,220
2016-07-16T08:05:33.545Z,230
2016-07-16T08:06:33.487Z,240
2016-07-16T08:07:33.632Z,275
2016-07-16T08:08:34.283Z,300
2016-07-16T08:09:34.498Z,340
2016-07-16T08:10:33.539Z,390
2016-07-16T08:11:33.846Z,410
2016-07-16T08:12:33.576Z,390
2016-07-16T08:13:33.530Z,375
2016-07-16T08:14:33.526Z,360
2016-07-16T08:15:33.514Z,335
2016-07-16T08:16:33.560Z,315
2016-07-16T08:17:34.745Z,330
2016-07-16T08:18:33.541Z,340
2016-07-16T08:19:33.536Z,320
2016-07-16T08:20:33.562Z,295
2016-07-16T08:21:33.572Z,280
2016-07-16T08:22:33.484Z,265
2016-07-16T08:23:33.512Z,240
2016-07-16T08:24:33.526Z,255
2016-07-16T08:25:33.530Z,245
2016-07-16T08:26:33.497Z,250
2016-07-16T08:27:33.625Z,280
2016-07-16T08:28:33.574Z,270
2016-07-16T08:29:33.526Z,255
2016-07-16T08:30:33.538Z,240
2016-07-16T08:31:33.512Z,205
2016-07-16T08:32:33.521Z,195
2016-07-16T08:33:33.502Z,205
2016-07-16T08:34:33.521Z,250
2016-07-16T08:35:33.603Z,305
2016-07-16T08:36:33.513Z,305
2016-07-16T08:37:33.547Z,320
2016-07-16T08:38:33.531Z,315
2016-07-16T08:39:33.663Z,295
2016-07-16T08:40:33.757Z,260
2016-07-16T08:41:33.657Z,220
2016-07-16T08:42:33.816Z,205
2016-07-16T08:43:33.589Z,230
2016-07-16T08:44:34.187Z,285
2016-07-16T08:45:33.603Z,295
2016-07-16T08:46:33.838Z,300
2016-07-16T08:47:33.922Z,300
2016-07-16T08:48:33.674Z,345
2016-07-16T08:49:33.534Z,380
2016-07-16T08:50:33.608Z,340
2016-07-16T08:51:33.543Z,315
2016-07-16T08:52:33.533Z,310
2016-07-16T08:53:33.777Z,285
2016-07-16T08:54:33.573Z,305
2016-07-16T08:55:34.588Z,340
2016-07-16T08:56:33.580Z,325
2016-07-16T08:57:34.902Z,315
2016-07-16T08:58:33.613Z,310
2016-07-16T08:59:33.573Z,305
2016-07-16T09:00:33.697Z,330
2016-07-16T09:01:33.604Z,335
2016-07-16T09:02:33.580Z,355
2016-07-16T09:03:33.560Z,375
2016-07-16T09:04:33.933Z,390
2016-07-16T09:05:33.574Z,390
2016-07-16T09:06:34.863Z,390
2016-07-16T09:07:34.447Z,395
2016-07-16T09:08:34.000Z,390
2016-07-16T09:09:33.691Z,380
2016-07-16T09:10:34.454Z,395
2016-07-16T09:11:33.638Z,390
2016-07-16T09:12:33.627Z,385
2016-07-16T09:13:33.616Z,370
2016-07-16T09:14:33.641Z,350
2016-07-16T09:15:33.726Z,380
2016-07-16T09:16:34.752Z,385
2016-07-16T09:17:33.534Z,410
2016-07-16T09:18:33.588Z,445
2016-07-16T09:19:33.563Z,465
2016-07-16T09:20:33.567Z,470
2016-07-16T09:21:33.595Z,440
2016-07-16T09:22:33.687Z,420
2016-07-16T09:23:33.610Z,410
2016-07-16T09:24:33.576Z,385
2016-07-16T09:25:33.527Z,370
2016-07-16T09:26:34.325Z,360
2016-07-16T09:27:33.566Z,385
2016-07-16T09:28:33.555Z,390
2016-07-16T09:29:33.777Z,390
2016-07-16T09:30:33.670Z,375
2016-07-16T09:31:33.667Z,370
2016-07-16T09:32:33.573Z,330
2016-07-16T09:33:33.635Z,320
2016-07-16T09:34:33.654Z,310
2016-07-16T09:35:33.670Z,315
2016-07-16T09:36:33.612Z,305
2016-07-16T09:37:34.038Z,310
2016-07-16T09:38:33.787Z,335
2016-07-16T09:39:33.667Z,335
2016-07-16T09:40:33.642Z,320
2016-07-16T09:41:33.649Z,315
2016-07-16T09:42:34.410Z,280
2016-07-16T09:43:33.607Z,260
2016-07-16T09:44:33.681Z,250
2016-07-16T09:45:33.604Z,255
2016-07-16T09:46:34.309Z,270
2016-07-16T09:47:34.371Z,275
2016-07-16T09:48:33.642Z,280
2016-07-16T09:49:33.638Z,280
2016-07-16T09:50:33.616Z,305
2016-07-16T09:51:33.644Z,310
2016-07-16T09:52:33.558Z,305
2016-07-16T09:53:33.544Z,315
2016-07-16T09:54:33.590Z,340
2016-07-16T09:55:33.612Z,390
2016-07-16T09:56:33.669Z,425
2016-07-16T09:57:33.604Z,465
2016-07-16T09:58:34.569Z,500
2016-07-16T09:59:33.617Z,505
2016-07-16T10:00:33.655Z,460
2016-07-16T10:01:34.245Z,460
2016-07-16T10:02:34.200Z,445
2016-07-16T10:03:33.652Z,415
2016-07-16T10:04:33.641Z,420
2016-07-16T10:05:33.677Z,430
2016-07-16T10:06:33.672Z,450
2016-07-16T10:07:34.533Z,475
2016-07-16T10:08:33.687Z,495
2016-07-16T10:09:33.723Z,505
2016-07-16T10:10:33.667Z,510
2016-07-16T10:11:33.607Z,525
2016-07-16T10:12:33.672Z,470
2016-07-16T10:13:33.639Z,460
2016-07-16T10:14:33.658Z,485
2016-07-16T10:15:33.711Z,520
2016-07-16T10:16:33.624Z,570
2016-07-16T10:17:33.703Z,615
2016-07-16T10:18:33.700Z,750
2016-07-16T10:19:33.614Z,780
2016-07-16T10:20:33.657Z,760
2016-07-16T10:21:33.629Z,690
2016-07-16T10:22:33.597Z,650
2016-07-16T10:23:33.609Z,595
2016-07-16T10:24:33.609Z,530
2016-07-16T10:25:33.793Z,510
2016-07-16T10:26:33.660Z,520
2016-07-16T10:27:33.679Z,515
2016-07-16T10:28:33.668Z,495
2016-07-16T10:29:33.633Z,465
2016-07-16T10:30:33.700Z,460
2016-07-16T10:31:33.676Z,445
2016-07-16T10:32:33.669Z,435
2016-07-16T10:33:33.732Z,410
2016-07-16T10:34:33.682Z,370
2016-07-16T10:35:33.699Z,375
2016-07-16T10:36:33.680Z,420
2016-07-16T10:37:33.670Z,460
2016-07-16T10:38:33.654Z,505
2016-07-16T10:39:33.669Z,535
2016-07-16T10:40:33.730Z,530
2016-07-16T10:41:33.690Z,515
2016-07-16T10:42:33.733Z,515
2016-07-16T10:43:33.633Z,485
2016-07-16T10:44:33.657Z,455
2016-07-16T10:45:33.705Z,465
2016-07-16T10:46:33.692Z,485
2016-07-16T10:47:33.649Z,500
2016-07-16T10:48:33.658Z,520
2016-07-16T10:49:33.639Z,555
2016-07-16T10:50:33.727Z,585
2016-07-16T10:51:33.678Z,575
2016-07-16T10:52:33.657Z,545
2016-07-16T10:53:33.678Z,510
2016-07-16T10:54:33.710Z,490
2016-07-16T10:55:33.641Z,485
2016-07-16T10:56:34.061Z,475
2016-07-16T10:57:33.681Z,470
2016-07-16T10:58:33.802Z,480
2016-07-16T10:59:33.745Z,495
2016-07-16T11:00:34.690Z,485
2016-07-16T11:01:33.902Z,490
2016-07-16T11:02:34.201Z,485
2016-07-16T11:03:33.731Z,470
2016-07-16T11:04:33.704Z,480
2016-07-16T11:05:33.680Z,500
2016-07-16T11:06:34.060Z,525
2016-07-16T11:07:33.835Z,545
2016-07-16T11:08:34.010Z,530
2016-07-16T11:09:33.641Z,530
2016-07-16T11:10:33.725Z,510
2016-07-16T11:11:33.970Z,515
2016-07-16T11:12:33.992Z,525
2016-07-16T11:13:33.885Z,535
2016-07-16T11:14:33.704Z,590
2016-07-16T11:15:33.823Z,595
2016-07-16T11:16:33.690Z,595
2016-07-16T11:17:33.667Z,555
2016-07-16T11:18:33.710Z,550
2016-07-16T11:19:33.792Z,525
2016-07-16T11:20:33.843Z,490
2016-07-16T11:21:33.733Z,465
2016-07-16T11:22:33.803Z,420
2016-07-16T11:23:33.763Z,415
2016-07-16T11:24:33.798Z,435
2016-07-16T11:25:34.285Z,415
2016-07-16T11:26:33.836Z,425
2016-07-16T11:27:33.739Z,420
2016-07-16T11:28:33.798Z,405
2016-07-16T11:29:33.723Z,380
2016-07-16T11:30:33.762Z,390
2016-07-16T11:31:33.853Z,365
2016-07-16T11:32:33.853Z,320
2016-07-16T11:33:33.744Z,295
2016-07-16T11:34:33.723Z,300
2016-07-16T11:35:33.743Z,325
2016-07-16T11:36:33.740Z,345
2016-07-16T11:37:33.879Z,330
2016-07-16T11:38:33.797Z,325
2016-07-16T11:39:33.764Z,335
2016-07-16T11:40:34.159Z,355
2016-07-16T11:41:33.802Z,365
2016-07-16T11:42:34.172Z,395
2016-07-16T11:43:33.741Z,420
2016-07-16T11:44:33.744Z,410
2016-07-16T11:45:33.843Z,375
2016-07-16T11:46:33.772Z,330
2016-07-16T11:47:33.750Z,310
2016-07-16T11:48:33.794Z,305
2016-07-16T11:49:33.676Z,305
2016-07-16T11:50:33.806Z,300
2016-07-16T11:51:33.792Z,275
2016-07-16T11:52:33.723Z,255
2016-07-16T11:53:33.767Z,245
2016-07-16T11:54:33.783Z,240
2016-07-16T11:55:33.748Z,225
2016-07-16T11:56:33.749Z,230
2016-07-16T11:57:33.695Z,240
2016-07-16T11:58:33.813Z,250
2016-07-16T11:59:33.755Z,280
2016-07-16T12:00:33.771Z,295
2016-07-16T12:01:33.863Z,325
2016-07-16T12:02:33.838Z,340
2016-07-16T12:03:34.662Z,345
2016-07-16T12:04:33.763Z,350
2016-07-16T12:05:34.072Z,410
2016-07-16T12:06:34.359Z,420
2016-07-16T12:07:33.854Z,385
2016-07-16T12:08:33.757Z,345
2016-07-16T12:09:33.734Z,335
2016-07-16T12:10:33.988Z,340
2016-07-16T12:11:33.789Z,345
2016-07-16T12:12:33.751Z,340
2016-07-16T12:13:33.836Z,345
2016-07-16T12:14:33.800Z,315
2016-07-16T12:15:33.704Z,300
2016-07-16T12:16:33.877Z,290
2016-07-16T12:17:34.586Z,290
2016-07-16T12:18:33.874Z,320
2016-07-16T12:19:33.812Z,320
2016-07-16T12:20:33.817Z,305
2016-07-16T12:21:33.887Z,300
2016-07-16T12:22:33.734Z,310
2016-07-16T12:23:34.888Z,315
2016-07-16T12:24:33.739Z,330
2016-07-16T12:25:33.850Z,320
2016-07-16T12:26:33.885Z,320
2016-07-16T12:27:33.786Z,345
2016-07-16T12:28:33.846Z,380
2016-07-16T12:29:33.864Z,390
2016-07-16T12:30:33.992Z,395
2016-07-16T12:31:34.092Z,370
2016-07-16T12:32:34.532Z,365
2016-07-16T12:33:33.840Z,345
2016-07-16T12:34:33.938Z,305
2016-07-16T12:35:33.767Z,280
2016-07-16T12:36:33.746Z,260
2016-07-16T12:37:33.984Z,265
2016-07-16T12:38:33.866Z,260
2016-07-16T12:39:33.857Z,240
2016-07-16T12:40:33.756Z,240
2016-07-16T12:41:33.782Z,260
2016-07-16T12:42:34.606Z,295
2016-07-16T12:43:33.940Z,295
2016-07-16T12:44:33.785Z,285
2016-07-16T12:45:34.194Z,300
2016-07-16T12:46:34.026Z,315
2016-07-16T12:47:33.862Z,355
2016-07-16T12:48:33.845Z,420
2016-07-16T12:49:33.805Z,460
2016-07-16T12:50:34.046Z,465
2016-07-16T12:51:33.854Z,520
2016-07-16T12:52:33.837Z,525
2016-07-16T12:53:33.808Z,500
2016-07-16T12:54:34.053Z,480
2016-07-16T12:55:33.925Z,515
2016-07-16T12:56:33.813Z,570
2016-07-16T12:57:34.507Z,540
2016-07-16T12:58:33.946Z,530
2016-07-16T12:59:33.791Z,545
2016-07-16T13:00:33.861Z,550
2016-07-16T13:01:33.911Z,560
2016-07-16T13:02:33.893Z,555
2016-07-16T13:03:33.889Z,510
2016-07-16T13:04:33.927Z,495
2016-07-16T13:05:34.608Z,505
2016-07-16T13:06:33.846Z,535
2016-07-16T13:07:33.844Z,525
2016-07-16T13:08:33.830Z,530
2016-07-16T13:09:33.815Z,455
2016-07-16T13:10:33.828Z,415
2016-07-16T13:11:34.068Z,385
2016-07-16T13:12:33.837Z,365
2016-07-16T13:13:33.906Z,335
2016-07-16T13:14:33.882Z,305
2016-07-16T13:15:34.470Z,285
2016-07-16T13:16:33.856Z,270
2016-07-16T13:17:33.872Z,355
2016-07-16T13:18:34.173Z,420
2016-07-16T13:19:33.821Z,355
2016-07-16T13:20:33.817Z,355
2016-07-16T13:21:33.840Z,345
2016-07-16T13:22:33.889Z,295
2016-07-16T13:23:33.829Z,300
2016-07-16T13:24:34.377Z,360
2016-07-16T13:25:33.873Z,375
2016-07-16T13:26:33.834Z,365
2016-07-16T13:27:33.799Z,385
2016-07-16T13:28:33.948Z,450
2016-07-16T13:29:33.834Z,480
2016-07-16T13:30:33.831Z,510
2016-07-16T13:31:33.839Z,510
2016-07-16T13:32:33.873Z,465
2016-07-16T13:33:33.866Z,445
2016-07-16T13:34:33.854Z,435
2016-07-16T13:35:33.851Z,455
2016-07-16T13:36:33.809Z,450
2016-07-16T13:37:33.847Z,425
2016-07-16T13:38:34.063Z,395
2016-07-16T13:39:33.852Z,395
2016-07-16T13:40:33.841Z,395
2016-07-16T13:41:33.947Z,410
2016-07-16T13:42:33.842Z,450
2016-07-16T13:43:33.812Z,490
2016-07-16T13:44:33.820Z,500
2016-07-16T13:45:33.903Z,510
2016-07-16T13:46:33.889Z,505
2016-07-16T13:47:33.841Z,505
2016-07-16T13:48:33.863Z,510
2016-07-16T13:49:33.845Z,515
2016-07-16T13:50:33.891Z,505
2016-07-16T13:51:33.839Z,515
2016-07-16T13:52:33.930Z,520
2016-07-16T13:53:33.963Z,495
2016-07-16T13:54:33.860Z,480
2016-07-16T13:55:33.947Z,475
2016-07-16T13:56:33.980Z,475
2016-07-16T13:57:33.884Z,475
2016-07-16T13:58:33.845Z,460
2016-07-16T13:59:33.885Z,445
2016-07-16T14:00:33.859Z,470
2016-07-16T14:01:33.920Z,465
2016-07-16T14:02:34.077Z,475
2016-07-16T14:03:33.852Z,475
2016-07-16T14:04:33.921Z,480